QFA2419 YSSY-YMML
Flight info
| Callsign | QFA2419 |
|---|---|
| Flight time | 1h 20m |
| Altitude | 36000 |
| Route | WOL H65 LEECE Q29 ML |
| Aircraft | A21N/M-SDE2E3FGHIRWXY/LB1 |
Departure
| Time | 2026-05-04 08:40 |
|---|---|
| Airport | Sydney Kingsford Smith International Airport (YSSY) |
Arrival
| Time | 2026-05-04 10:00 |
|---|---|
| Airport | Melbourne Airport (YMML) |
| Time | Latitude | Longitude | Altitude | Speed | Heading |
|---|---|---|---|---|---|
| 2026-05-04 08:04 | -33.93563 | 151.17760 | 11 ft | 0 kts | 280° |
| 2026-05-04 08:24 | -33.93555 | 151.17835 | 14 ft | 0 kts | 191° |
| 2026-05-04 08:27 | -33.93666 | 151.17806 | 11 ft | 9 kts | 191° |
| 2026-05-04 08:28 | -33.93740 | 151.17789 | 10 ft | 11 kts | 190° |
| 2026-05-04 08:28 | -33.93827 | 151.17772 | 9 ft | 13 kts | 189° |
| 2026-05-04 08:28 | -33.93913 | 151.17781 | 10 ft | 11 kts | 169° |
| 2026-05-04 08:28 | -33.93997 | 151.17802 | 11 ft | 14 kts | 167° |
| 2026-05-04 08:29 | -33.94109 | 151.17833 | 13 ft | 18 kts | 167° |
| 2026-05-04 08:29 | -33.94240 | 151.17868 | 18 ft | 20 kts | 168° |
| 2026-05-04 08:29 | -33.94383 | 151.17905 | 23 ft | 21 kts | 168° |
| 2026-05-04 08:31 | -33.95095 | 151.18124 | 21 ft | 11 kts | 82° |
| 2026-05-04 08:33 | -33.95109 | 151.18535 | 16 ft | 19 kts | 140° |
| 2026-05-04 08:33 | -33.95237 | 151.18666 | 12 ft | 28 kts | 145° |
| 2026-05-04 08:35 | -33.96492 | 151.19028 | 10 ft | 21 kts | 167° |
| 2026-05-04 08:35 | -33.96630 | 151.19066 | 12 ft | 19 kts | 169° |
| 2026-05-04 08:35 | -33.96763 | 151.19072 | 12 ft | 18 kts | 188° |
| 2026-05-04 08:35 | -33.96890 | 151.19083 | 12 ft | 18 kts | 167° |
| 2026-05-04 08:37 | -33.97125 | 151.19253 | 12 ft | 0 kts | 77° |
| 2026-05-04 08:37 | -33.97124 | 151.19257 | 12 ft | 2 kts | 77° |
| 2026-05-04 08:37 | -33.97116 | 151.19296 | 12 ft | 6 kts | 77° |
| 2026-05-04 08:38 | -33.97053 | 151.19373 | 12 ft | 17 kts | 9° |
| 2026-05-04 08:38 | -33.96999 | 151.19363 | 12 ft | 7 kts | 348° |
| 2026-05-04 08:38 | -33.96878 | 151.19331 | 12 ft | 47 kts | 348° |
| 2026-05-04 08:40 | -33.92207 | 151.22191 | 3334 ft | 207 kts | 123° |
| 2026-05-04 08:40 | -33.93047 | 151.23589 | 3823 ft | 209 kts | 119° |
| 2026-05-04 08:40 | -33.93823 | 151.25084 | 4292 ft | 212 kts | 110° |
| 2026-05-04 08:41 | -33.94103 | 151.26828 | 4606 ft | 217 kts | 84° |
| 2026-05-04 08:41 | -33.93992 | 151.28680 | 4927 ft | 231 kts | 78° |
| 2026-05-04 08:41 | -33.93821 | 151.30659 | 5199 ft | 251 kts | 80° |
| 2026-05-04 08:41 | -33.93674 | 151.32851 | 5531 ft | 270 kts | 82° |
| 2026-05-04 08:42 | -33.93564 | 151.35165 | 5978 ft | 284 kts | 83° |
| 2026-05-04 08:42 | -33.93480 | 151.37553 | 6612 ft | 290 kts | 83° |
| 2026-05-04 08:42 | -33.93405 | 151.39990 | 7291 ft | 293 kts | 83° |
| 2026-05-04 08:42 | -33.93333 | 151.42421 | 7961 ft | 296 kts | 84° |
| 2026-05-04 08:43 | -33.93259 | 151.44894 | 8621 ft | 299 kts | 84° |
| 2026-05-04 08:43 | -33.93182 | 151.47412 | 9257 ft | 303 kts | 84° |
| 2026-05-04 08:43 | -33.93286 | 151.49934 | 9835 ft | 312 kts | 102° |
| 2026-05-04 08:43 | -33.94234 | 151.52316 | 10386 ft | 321 kts | 128° |
| 2026-05-04 08:44 | -33.95970 | 151.54039 | 10678 ft | 334 kts | 156° |
| 2026-05-04 08:44 | -33.98249 | 151.54691 | 10938 ft | 341 kts | 184° |
| 2026-05-04 08:46 | -34.06395 | 151.40150 | 14615 ft | 348 kts | 228° |
| 2026-05-04 08:46 | -34.08176 | 151.38182 | 15106 ft | 352 kts | 229° |
| 2026-05-04 08:46 | -34.09983 | 151.36140 | 15607 ft | 355 kts | 230° |
| 2026-05-04 08:46 | -34.11749 | 151.34080 | 16086 ft | 358 kts | 231° |
| 2026-05-04 08:47 | -34.13525 | 151.31947 | 16555 ft | 361 kts | 231° |
| 2026-05-04 08:47 | -34.15279 | 151.29811 | 17030 ft | 363 kts | 232° |
| 2026-05-04 08:47 | -34.17070 | 151.27608 | 17501 ft | 365 kts | 232° |
| 2026-05-04 08:47 | -34.18837 | 151.25418 | 17928 ft | 368 kts | 233° |
| 2026-05-04 08:48 | -34.20636 | 151.23180 | 18371 ft | 371 kts | 232° |
| 2026-05-04 08:48 | -34.22411 | 151.20969 | 18805 ft | 373 kts | 233° |
| 2026-05-04 08:48 | -34.24222 | 151.18710 | 19229 ft | 376 kts | 233° |
| 2026-05-04 08:48 | -34.26043 | 151.16437 | 19653 ft | 379 kts | 233° |
| 2026-05-04 08:49 | -34.27901 | 151.14117 | 20080 ft | 381 kts | 233° |
| 2026-05-04 08:50 | -34.39137 | 151.00050 | 22384 ft | 395 kts | 233° |
| 2026-05-04 08:50 | -34.41055 | 150.97639 | 22771 ft | 397 kts | 233° |
| 2026-05-04 08:51 | -34.42951 | 150.95258 | 23124 ft | 399 kts | 233° |
| 2026-05-04 08:51 | -34.44894 | 150.92818 | 23510 ft | 400 kts | 233° |
| 2026-05-04 08:51 | -34.46820 | 150.90393 | 23864 ft | 402 kts | 233° |
| 2026-05-04 08:51 | -34.48769 | 150.87942 | 24203 ft | 404 kts | 233° |
| 2026-05-04 08:52 | -34.50690 | 150.85522 | 24546 ft | 405 kts | 233° |
| 2026-05-04 08:52 | -34.52661 | 150.83035 | 24890 ft | 407 kts | 234° |
| 2026-05-04 08:52 | -34.54608 | 150.80542 | 25208 ft | 406 kts | 236° |
| 2026-05-04 08:52 | -34.56411 | 150.77969 | 25583 ft | 403 kts | 239° |
| 2026-05-04 08:53 | -34.58125 | 150.75250 | 25853 ft | 404 kts | 241° |
| 2026-05-04 08:54 | -34.69803 | 150.55833 | 27843 ft | 413 kts | 242° |
| 2026-05-04 08:55 | -34.71500 | 150.53005 | 28107 ft | 414 kts | 242° |
| 2026-05-04 08:55 | -34.73180 | 150.50203 | 28363 ft | 416 kts | 242° |
| 2026-05-04 08:55 | -34.74887 | 150.47354 | 28615 ft | 417 kts | 242° |
| 2026-05-04 08:55 | -34.76581 | 150.44525 | 28851 ft | 419 kts | 242° |
| 2026-05-04 08:57 | -34.88714 | 150.24196 | 30541 ft | 428 kts | 243° |
| 2026-05-04 09:01 | -35.12722 | 149.83640 | 34406 ft | 412 kts | 244° |
| 2026-05-04 09:01 | -35.14375 | 149.80829 | 34539 ft | 412 kts | 244° |
| 2026-05-04 09:01 | -35.16048 | 149.77977 | 34660 ft | 414 kts | 244° |
| 2026-05-04 09:01 | -35.17721 | 149.75125 | 34793 ft | 415 kts | 244° |
| 2026-05-04 09:02 | -35.19398 | 149.72266 | 34946 ft | 415 kts | 243° |
| 2026-05-04 09:02 | -35.21062 | 149.69424 | 35085 ft | 415 kts | 244° |
| 2026-05-04 09:02 | -35.22757 | 149.66531 | 35247 ft | 415 kts | 243° |
| 2026-05-04 09:02 | -35.24427 | 149.63680 | 35379 ft | 415 kts | 243° |
| 2026-05-04 09:03 | -35.26096 | 149.60825 | 35533 ft | 415 kts | 243° |
| 2026-05-04 09:03 | -35.27780 | 149.57944 | 35702 ft | 415 kts | 244° |
| 2026-05-04 09:03 | -35.29437 | 149.55103 | 35836 ft | 416 kts | 244° |
| 2026-05-04 09:03 | -35.31124 | 149.52210 | 35941 ft | 417 kts | 244° |
| 2026-05-04 09:04 | -35.32795 | 149.49344 | 36048 ft | 418 kts | 243° |
| 2026-05-04 09:04 | -35.36179 | 149.43530 | 36046 ft | 419 kts | 243° |
| 2026-05-04 09:05 | -35.39543 | 149.37743 | 36049 ft | 419 kts | 243° |
| 2026-05-04 09:05 | -35.42915 | 149.31931 | 36040 ft | 418 kts | 244° |
| 2026-05-04 09:06 | -35.46261 | 149.26157 | 36043 ft | 418 kts | 244° |
| 2026-05-04 09:07 | -35.58196 | 149.05461 | 36028 ft | 435 kts | 244° |
| 2026-05-04 09:08 | -35.59949 | 149.02412 | 36036 ft | 436 kts | 244° |
| 2026-05-04 09:08 | -35.63443 | 148.96332 | 36042 ft | 438 kts | 244° |
| 2026-05-04 09:09 | -35.66927 | 148.90257 | 36034 ft | 437 kts | 244° |
| 2026-05-04 09:09 | -35.70433 | 148.84134 | 36033 ft | 439 kts | 244° |
| 2026-05-04 09:10 | -35.73922 | 148.78024 | 36027 ft | 437 kts | 244° |
| 2026-05-04 09:10 | -35.77420 | 148.71889 | 36027 ft | 439 kts | 244° |
| 2026-05-04 09:11 | -35.80928 | 148.65726 | 36044 ft | 439 kts | 243° |
| 2026-05-04 09:11 | -35.84419 | 148.59581 | 36032 ft | 439 kts | 244° |
| 2026-05-04 09:12 | -35.87915 | 148.53420 | 36036 ft | 439 kts | 244° |
| 2026-05-04 09:14 | -36.01768 | 148.28798 | 36054 ft | 437 kts | 244° |
| 2026-05-04 09:14 | -36.05223 | 148.22629 | 36056 ft | 437 kts | 244° |
| 2026-05-04 09:15 | -36.08674 | 148.16452 | 36058 ft | 437 kts | 244° |
| 2026-05-04 09:15 | -36.12125 | 148.10268 | 36050 ft | 440 kts | 244° |
| 2026-05-04 09:17 | -36.27732 | 147.82292 | 36044 ft | 441 kts | 244° |
| 2026-05-04 09:18 | -36.31190 | 147.76053 | 36052 ft | 442 kts | 244° |
| 2026-05-04 09:18 | -36.32916 | 147.72945 | 36031 ft | 429 kts | 244° |
| 2026-05-04 09:18 | -36.34579 | 147.69961 | 36038 ft | 413 kts | 244° |
| 2026-05-04 09:19 | -36.37771 | 147.64177 | 36043 ft | 409 kts | 244° |
| 2026-05-04 09:19 | -36.40984 | 147.58324 | 36043 ft | 410 kts | 244° |
| 2026-05-04 09:20 | -36.44200 | 147.52466 | 36036 ft | 411 kts | 244° |
| 2026-05-04 09:20 | -36.47401 | 147.46632 | 36025 ft | 410 kts | 244° |
| 2026-05-04 09:21 | -36.50620 | 147.40765 | 36026 ft | 412 kts | 243° |
| 2026-05-04 09:21 | -36.52519 | 147.38066 | 36013 ft | 428 kts | 230° |
| 2026-05-04 09:21 | -36.54979 | 147.35890 | 36020 ft | 445 kts | 217° |
| 2026-05-04 09:22 | -36.57878 | 147.34396 | 36030 ft | 460 kts | 204° |
| 2026-05-04 09:22 | -36.61062 | 147.33630 | 36038 ft | 470 kts | 195° |
| 2026-05-04 09:22 | -36.67561 | 147.32808 | 36024 ft | 472 kts | 193° |
| 2026-05-04 09:23 | -36.74113 | 147.32182 | 36013 ft | 477 kts | 187° |
| 2026-05-04 09:23 | -36.80810 | 147.32561 | 36013 ft | 483 kts | 183° |
| 2026-05-04 09:25 | -37.00259 | 147.24199 | 35992 ft | 408 kts | 252° |
| 2026-05-04 09:25 | -37.01159 | 147.20918 | 35991 ft | 395 kts | 265° |
| 2026-05-04 09:26 | -37.01729 | 147.14209 | 35996 ft | 388 kts | 271° |
| 2026-05-04 09:26 | -37.01995 | 147.10857 | 35865 ft | 386 kts | 270° |
| 2026-05-04 09:26 | -37.02264 | 147.07536 | 35478 ft | 382 kts | 270° |
| 2026-05-04 09:27 | -37.02531 | 147.04246 | 35023 ft | 381 kts | 271° |
| 2026-05-04 09:27 | -37.02792 | 147.00975 | 34637 ft | 379 kts | 271° |
| 2026-05-04 09:27 | -37.03049 | 146.97723 | 34290 ft | 375 kts | 271° |
| 2026-05-04 09:27 | -37.03302 | 146.94502 | 33945 ft | 371 kts | 271° |
| 2026-05-04 09:28 | -37.03551 | 146.91339 | 33517 ft | 369 kts | 272° |
| 2026-05-04 09:28 | -37.03796 | 146.88092 | 32636 ft | 379 kts | 272° |
| 2026-05-04 09:28 | -37.04040 | 146.84817 | 31605 ft | 391 kts | 272° |
| 2026-05-04 09:28 | -37.04297 | 146.81424 | 30747 ft | 397 kts | 272° |
| 2026-05-04 09:29 | -37.04559 | 146.77982 | 30268 ft | 392 kts | 272° |
| 2026-05-04 09:29 | -37.04818 | 146.74658 | 29890 ft | 386 kts | 272° |
| 2026-05-04 09:29 | -37.05071 | 146.71343 | 29437 ft | 382 kts | 272° |
| 2026-05-04 09:29 | -37.05320 | 146.68036 | 28945 ft | 379 kts | 272° |
| 2026-05-04 09:30 | -37.05562 | 146.64787 | 28471 ft | 375 kts | 272° |
| 2026-05-04 09:30 | -37.05803 | 146.61559 | 27982 ft | 372 kts | 272° |
| 2026-05-04 09:30 | -37.06039 | 146.58385 | 27471 ft | 370 kts | 272° |
| 2026-05-04 09:30 | -37.06276 | 146.55177 | 26976 ft | 367 kts | 272° |
| 2026-05-04 09:31 | -37.06508 | 146.52019 | 26488 ft | 364 kts | 272° |
| 2026-05-04 09:31 | -37.06734 | 146.48926 | 26028 ft | 361 kts | 272° |
| 2026-05-04 09:31 | -37.06966 | 146.45789 | 25528 ft | 359 kts | 272° |
| 2026-05-04 09:31 | -37.07188 | 146.42729 | 25052 ft | 357 kts | 272° |
| 2026-05-04 09:32 | -37.07412 | 146.39662 | 24585 ft | 354 kts | 271° |
| 2026-05-04 09:32 | -37.07848 | 146.36600 | 24098 ft | 360 kts | 263° |
| 2026-05-04 09:34 | -37.16843 | 146.17539 | 20735 ft | 360 kts | 243° |
| 2026-05-04 09:34 | -37.18212 | 146.14946 | 20273 ft | 357 kts | 243° |
| 2026-05-04 09:34 | -37.19566 | 146.12383 | 19812 ft | 354 kts | 243° |
| 2026-05-04 09:34 | -37.20932 | 146.09793 | 19325 ft | 352 kts | 243° |
| 2026-05-04 09:35 | -37.22266 | 146.07257 | 18869 ft | 350 kts | 242° |
| 2026-05-04 09:35 | -37.23587 | 146.04746 | 18383 ft | 348 kts | 242° |
| 2026-05-04 09:35 | -37.24921 | 146.02208 | 17911 ft | 345 kts | 242° |
| 2026-05-04 09:35 | -37.26228 | 145.99725 | 17471 ft | 342 kts | 242° |
| 2026-05-04 09:37 | -37.35166 | 145.82695 | 14306 ft | 325 kts | 242° |
| 2026-05-04 09:37 | -37.36391 | 145.80362 | 13853 ft | 324 kts | 241° |
| 2026-05-04 09:38 | -37.37624 | 145.78006 | 13406 ft | 322 kts | 241° |
| 2026-05-04 09:38 | -37.38849 | 145.75668 | 13026 ft | 319 kts | 241° |
| 2026-05-04 09:38 | -37.40071 | 145.73329 | 12867 ft | 319 kts | 241° |
| 2026-05-04 09:38 | -37.41273 | 145.71033 | 12523 ft | 316 kts | 242° |
| 2026-05-04 09:39 | -37.42490 | 145.68703 | 12014 ft | 316 kts | 242° |
| 2026-05-04 09:39 | -37.43686 | 145.66412 | 11542 ft | 316 kts | 242° |
| 2026-05-04 09:39 | -37.44895 | 145.64105 | 11088 ft | 315 kts | 240° |
| 2026-05-04 09:39 | -37.46158 | 145.61887 | 10649 ft | 314 kts | 239° |
| 2026-05-04 09:40 | -37.47432 | 145.59700 | 10417 ft | 304 kts | 239° |
| 2026-05-04 09:40 | -37.48661 | 145.57596 | 10230 ft | 295 kts | 239° |
| 2026-05-04 09:40 | -37.49853 | 145.55556 | 10048 ft | 285 kts | 239° |
| 2026-05-04 09:40 | -37.51000 | 145.53587 | 9830 ft | 277 kts | 239° |
| 2026-05-04 09:41 | -37.52127 | 145.51642 | 9483 ft | 274 kts | 239° |
| 2026-05-04 09:42 | -37.59844 | 145.38316 | 7387 ft | 264 kts | 239° |
| 2026-05-04 09:43 | -37.60922 | 145.36452 | 7007 ft | 263 kts | 239° |
| 2026-05-04 09:43 | -37.61998 | 145.34590 | 6630 ft | 262 kts | 240° |
| 2026-05-04 09:43 | -37.63059 | 145.32756 | 6285 ft | 260 kts | 240° |
| 2026-05-04 09:43 | -37.64117 | 145.30922 | 5917 ft | 258 kts | 240° |
| 2026-05-04 09:44 | -37.65169 | 145.29097 | 5541 ft | 258 kts | 240° |
| 2026-05-04 09:44 | -37.66214 | 145.27284 | 5178 ft | 257 kts | 240° |
| 2026-05-04 09:44 | -37.67259 | 145.25472 | 4822 ft | 255 kts | 240° |
| 2026-05-04 09:46 | -37.74591 | 145.13065 | 2974 ft | 261 kts | 223° |
| 2026-05-04 09:46 | -37.76249 | 145.12038 | 2986 ft | 271 kts | 206° |
| 2026-05-04 09:46 | -37.78059 | 145.11305 | 2985 ft | 272 kts | 202° |
| 2026-05-04 09:47 | -37.79850 | 145.10643 | 2982 ft | 271 kts | 202° |
| 2026-05-04 09:47 | -37.81679 | 145.09982 | 2978 ft | 271 kts | 202° |
| 2026-05-04 09:49 | -37.93666 | 145.05789 | 2969 ft | 235 kts | 202° |
| 2026-05-04 09:49 | -37.95260 | 145.05252 | 2971 ft | 235 kts | 202° |
| 2026-05-04 09:49 | -37.96837 | 145.04719 | 2969 ft | 235 kts | 202° |
| 2026-05-04 09:51 | -37.98218 | 144.97775 | 2980 ft | 190 kts | 328° |
| 2026-05-04 09:51 | -37.97074 | 144.96960 | 2973 ft | 189 kts | 327° |
| 2026-05-04 09:51 | -37.95934 | 144.96132 | 2974 ft | 190 kts | 327° |
| 2026-05-04 09:51 | -37.94780 | 144.95287 | 2974 ft | 190 kts | 327° |
| 2026-05-04 09:52 | -37.93644 | 144.94449 | 2901 ft | 185 kts | 327° |
| 2026-05-04 09:52 | -37.92541 | 144.93631 | 2595 ft | 186 kts | 327° |
| 2026-05-04 09:52 | -37.91422 | 144.92799 | 2478 ft | 185 kts | 327° |
| 2026-05-04 09:52 | -37.90308 | 144.91974 | 2483 ft | 187 kts | 327° |
| 2026-05-04 09:53 | -37.89174 | 144.91133 | 2482 ft | 188 kts | 327° |
| 2026-05-04 09:53 | -37.88055 | 144.90305 | 2484 ft | 189 kts | 327° |
| 2026-05-04 09:53 | -37.86923 | 144.89465 | 2481 ft | 183 kts | 327° |
| 2026-05-04 09:53 | -37.85859 | 144.88676 | 2459 ft | 168 kts | 327° |
| 2026-05-04 09:54 | -37.84866 | 144.87946 | 2470 ft | 164 kts | 328° |
| 2026-05-04 09:54 | -37.83839 | 144.87318 | 2481 ft | 166 kts | 335° |
| 2026-05-04 09:54 | -37.82731 | 144.86874 | 2486 ft | 168 kts | 341° |
| 2026-05-04 09:54 | -37.81586 | 144.86557 | 2494 ft | 169 kts | 344° |
| 2026-05-04 09:55 | -37.80410 | 144.86298 | 2499 ft | 173 kts | 346° |
| 2026-05-04 09:55 | -37.79246 | 144.86072 | 2496 ft | 162 kts | 346° |
| 2026-05-04 09:55 | -37.78144 | 144.85869 | 2219 ft | 158 kts | 347° |
| 2026-05-04 09:55 | -37.77107 | 144.85678 | 1987 ft | 144 kts | 347° |
| 2026-05-04 09:56 | -37.76144 | 144.85498 | 1851 ft | 139 kts | 347° |
| 2026-05-04 09:56 | -37.75188 | 144.85318 | 1639 ft | 136 kts | 348° |
| 2026-05-04 09:56 | -37.74259 | 144.85159 | 1483 ft | 135 kts | 352° |
| 2026-05-04 09:56 | -37.73320 | 144.85039 | 1344 ft | 134 kts | 349° |
| 2026-05-04 09:57 | -37.72405 | 144.84854 | 1218 ft | 134 kts | 347° |
| 2026-05-04 09:57 | -37.71476 | 144.84671 | 1048 ft | 134 kts | 350° |
| 2026-05-04 09:57 | -37.70555 | 144.84491 | 842 ft | 133 kts | 349° |
| 2026-05-04 09:57 | -37.69649 | 144.84306 | 650 ft | 133 kts | 351° |
| 2026-05-04 09:58 | -37.68733 | 144.84135 | 418 ft | 132 kts | 352° |
| 2026-05-04 09:58 | -37.67868 | 144.83974 | 359 ft | 108 kts | 351° |
| 2026-05-04 09:58 | -37.67297 | 144.83879 | 375 ft | 61 kts | 348° |
| 2026-05-04 10:00 | -37.66510 | 144.83874 | 405 ft | 0 kts | 92° |
| 2026-05-04 10:04 | -37.66511 | 144.83896 | 404 ft | 2 kts | 90° |
| 2026-05-04 10:04 | -37.66512 | 144.83929 | 403 ft | 6 kts | 93° |
| 2026-05-04 10:04 | -37.66518 | 144.84015 | 401 ft | 13 kts | 94° |
| 2026-05-04 10:04 | -37.66526 | 144.84160 | 398 ft | 17 kts | 94° |
| 2026-05-04 10:05 | -37.66530 | 144.84239 | 398 ft | 8 kts | 93° |
| 2026-05-04 10:05 | -37.66527 | 144.84329 | 398 ft | 11 kts | 80° |
| 2026-05-04 10:05 | -37.66510 | 144.84445 | 399 ft | 15 kts | 79° |
| 2026-05-04 10:05 | -37.66488 | 144.84593 | 401 ft | 16 kts | 81° |
| 2026-05-04 10:06 | -37.66475 | 144.84711 | 404 ft | 4 kts | 82° |
| 2026-05-04 10:06 | -37.66469 | 144.84766 | 405 ft | 8 kts | 81° |
| 2026-05-04 10:06 | -37.66459 | 144.84850 | 407 ft | 11 kts | 81° |
| 2026-05-04 10:08 | -37.66652 | 144.84987 | 409 ft | 0 kts | 261° |